Time;durP1;ratioP1;P1;durP2;ratioP2;P2;SDS_P1;SDS_P2;PMS_P1;PMS_P2;Temp;Humidity;BMP_temperature;BMP_pressure;BME280_temperature;BME280_humidity;BME280_pressure;Samples;Min_cycle;Max_cycle;Signal;HPM_P1;HPM_P2
2022/02/17 00:01:27;;;;;;;0.60;0.60;;;11.70;84.40;;;;;;6231603;23;20206;-83
2022/02/17 00:03:54;;;;;;;0.50;0.50;;;11.70;84.70;;;;;;6231178;23;20189;-83
2022/02/17 00:06:21;;;;;;;0.90;0.70;;;11.60;86.90;;;;;;6230648;23;20209;-83
2022/02/17 00:08:48;;;;;;;0.80;0.80;;;11.40;88.80;;;;;;6231298;23;20256;-83
2022/02/17 00:11:14;;;;;;;0.50;0.50;;;11.40;89.80;;;;;;6227812;23;20213;-83
2022/02/17 00:13:42;;;;;;;0.70;0.70;;;11.30;90.40;;;;;;6231091;23;20202;-83
2022/02/17 00:16:10;;;;;;;0.68;0.60;;;11.20;90.60;;;;;;6230048;23;20197;-83
2022/02/17 00:18:39;;;;;;;0.47;0.47;;;11.30;90.60;;;;;;6205242;23;20188;-84
2022/02/17 00:21:06;;;;;;;0.60;0.60;;;11.30;91.20;;;;;;6230265;23;20202;-83
2022/02/17 00:23:33;;;;;;;0.70;0.70;;;11.10;91.90;;;;;;6231334;23;20260;-83
2022/02/17 00:26:01;;;;;;;0.50;0.50;;;11.10;92.60;;;;;;6230410;23;20265;-83
2022/02/17 00:28:31;;;;;;;0.70;0.70;;;11.00;92.50;;;;;;6230844;23;20198;-83
2022/02/17 00:30:57;;;;;;;0.47;0.47;;;11.00;92.60;;;;;;6229060;23;20262;-84
2022/02/17 00:33:26;;;;;;;0.75;0.75;;;11.00;92.50;;;;;;6230269;23;20198;-83
2022/02/17 00:35:55;;;;;;;0.50;0.50;;;11.10;92.20;;;;;;6229623;23;20691;-83
2022/02/17 00:38:22;;;;;;;0.57;0.57;;;11.10;92.20;;;;;;6229598;23;20178;-82
2022/02/17 00:40:49;;;;;;;0.50;0.50;;;11.00;92.60;;;;;;6230568;23;20224;-83
2022/02/17 00:43:17;;;;;;;0.50;0.50;;;11.10;92.30;;;;;;6230147;23;20205;-83
2022/02/17 00:45:47;;;;;;;0.80;0.60;;;11.10;91.90;;;;;;6229957;23;20204;-84
2022/02/17 00:48:14;;;;;;;0.57;0.57;;;11.20;91.60;;;;;;6230277;23;20205;-83
2022/02/17 00:50:41;;;;;;;0.50;0.50;;;11.10;91.60;;;;;;6228990;23;20363;-83
2022/02/17 00:53:11;;;;;;;0.40;0.40;;;11.30;91.10;;;;;;6230632;23;20170;-83
2022/02/17 00:55:38;;;;;;;0.85;0.57;;;11.20;91.10;;;;;;6228841;23;20258;-87
2022/02/17 00:58:05;;;;;;;0.60;0.60;;;11.30;90.80;;;;;;6229390;23;20201;-83
2022/02/17 01:00:32;;;;;;;0.70;0.70;;;11.40;90.60;;;;;;6229238;23;20178;-83
2022/02/17 01:03:07;;;;;;;0.68;0.63;;;11.40;90.60;;;;;;6229536;23;20233;-83
2022/02/17 01:05:34;;;;;;;0.60;0.60;;;11.60;89.70;;;;;;6229578;23;20257;-84
2022/02/17 01:08:01;;;;;;;0.52;0.52;;;11.60;89.10;;;;;;6228168;23;20253;-83
2022/02/17 01:10:29;;;;;;;0.82;0.82;;;11.70;88.70;;;;;;6230204;23;20230;-85
2022/02/17 01:12:57;;;;;;;1.08;1.05;;;11.70;89.30;;;;;;6204884;23;20182;-84
2022/02/17 01:15:24;;;;;;;0.75;0.75;;;11.70;88.40;;;;;;6228446;23;20209;-83
2022/02/17 01:17:51;;;;;;;0.50;0.50;;;11.80;87.20;;;;;;6229575;23;20174;-84
2022/02/17 01:20:20;;;;;;;1.98;1.77;;;11.80;86.80;;;;;;6225558;23;20177;-87
2022/02/17 01:22:47;;;;;;;0.63;0.63;;;11.70;88.10;;;;;;6229359;23;20163;-88
2022/02/17 01:25:14;;;;;;;0.47;0.32;;;11.70;87.80;;;;;;6229755;23;20202;-83
2022/02/17 01:27:45;;;;;;;0.50;0.50;;;11.80;87.10;;;;;;6228013;23;20266;-84
2022/02/17 01:30:18;;;;;;;0.55;0.55;;;11.70;87.50;;;;;;6230963;23;20210;-83
2022/02/17 01:32:45;;;;;;;0.70;0.65;;;11.70;87.40;;;;;;6202969;23;20642;-83
2022/02/17 01:35:12;;;;;;;0.40;0.40;;;11.80;86.80;;;;;;6230489;23;20248;-83
2022/02/17 01:37:42;;;;;;;0.40;0.40;;;11.70;86.80;;;;;;6229258;23;20202;-83
2022/02/17 01:40:10;;;;;;;2.22;0.50;;;11.80;86.60;;;;;;6229428;23;20178;-83
2022/02/17 01:42:37;;;;;;;0.40;0.40;;;11.80;85.90;;;;;;6229068;23;20205;-83
2022/02/17 01:45:07;;;;;;;0.50;0.50;;;11.90;85.90;;;;;;6229553;23;20233;-85
2022/02/17 01:47:34;;;;;;;0.70;0.70;;;11.80;86.90;;;;;;6203859;23;20205;-84
2022/02/17 01:50:02;;;;;;;1.17;0.63;;;11.80;86.20;;;;;;6230727;23;20240;-83
2022/02/17 01:52:29;;;;;;;0.52;0.52;;;11.90;85.60;;;;;;6230470;23;20249;-83
2022/02/17 01:54:56;;;;;;;1.08;0.57;;;11.90;85.80;;;;;;6230447;23;20209;-83
2022/02/17 01:57:25;;;;;;;0.43;0.43;;;11.90;84.50;;;;;;6231138;23;20213;-83
2022/02/17 01:59:52;;;;;;;0.55;0.55;;;11.90;83.80;;;;;;6230553;23;20189;-84
2022/02/17 02:02:21;;;;;;;0.70;0.70;;;12.00;83.70;;;;;;6228898;23;20205;-84
2022/02/17 02:04:48;;;;;;;0.45;0.45;;;12.00;83.50;;;;;;6179708;23;20174;-84
2022/02/17 02:07:16;;;;;;;0.55;0.55;;;12.00;82.90;;;;;;6226346;23;20229;-83
2022/02/17 02:09:44;;;;;;;0.50;0.50;;;11.90;83.30;;;;;;6229786;23;20638;-85
2022/02/17 02:12:18;;;;;;;0.40;0.40;;;12.00;82.20;;;;;;6229552;23;20232;-84
2022/02/17 02:15:04;;;;;;;0.50;0.50;;;12.00;81.60;;;;;;6229846;23;20162;-83
2022/02/17 02:17:33;;;;;;;0.45;0.45;;;12.00;80.60;;;;;;6229290;23;20216;-83
2022/02/17 02:20:03;;;;;;;0.50;0.50;;;12.20;79.70;;;;;;6229906;23;20569;-84
2022/02/17 02:22:32;;;;;;;0.50;0.50;;;12.30;78.00;;;;;;6228976;23;20221;-84
2022/02/17 02:25:00;;;;;;;0.43;0.43;;;12.20;77.80;;;;;;6229998;23;20269;-86
2022/02/17 02:27:28;;;;;;;0.50;0.50;;;12.20;77.50;;;;;;6230256;23;20260;-83
2022/02/17 02:29:56;;;;;;;0.40;0.40;;;12.30;76.60;;;;;;6230578;23;20202;-86
2022/02/17 02:32:23;;;;;;;0.50;0.50;;;12.30;75.40;;;;;;6229417;23;20258;-83
2022/02/17 02:34:50;;;;;;;0.30;0.30;;;12.30;75.40;;;;;;6229635;23;20182;-83
2022/02/17 02:37:17;;;;;;;0.60;0.60;;;12.30;75.40;;;;;;6229856;23;20202;-83
2022/02/17 02:39:45;;;;;;;0.30;0.30;;;12.30;75.40;;;;;;6230732;23;20536;-83
2022/02/17 02:42:12;;;;;;;0.43;0.43;;;12.40;75.40;;;;;;6230918;23;20227;-85
2022/02/17 02:44:39;;;;;;;0.65;0.55;;;12.50;74.20;;;;;;6229788;23;20202;-84
2022/02/17 02:47:07;;;;;;;0.40;0.40;;;12.40;74.30;;;;;;6229189;23;20232;-84
2022/02/17 02:49:36;;;;;;;0.40;0.40;;;12.40;75.40;;;;;;6230993;23;20201;-83
2022/02/17 02:52:03;;;;;;;0.47;0.47;;;12.40;74.00;;;;;;6231674;23;20229;-84
2022/02/17 02:54:30;;;;;;;0.40;0.40;;;12.30;75.40;;;;;;6233468;23;20182;-84
2022/02/17 02:57:21;;;;;;;0.50;0.50;;;12.30;75.40;;;;;;6232355;23;20285;-85
2022/02/17 02:59:48;;;;;;;0.40;0.40;;;12.30;75.40;;;;;;6233270;23;20185;-84
2022/02/17 03:02:26;;;;;;;0.50;0.50;;;12.40;72.60;;;;;;6213539;23;20259;-85
2022/02/17 03:04:53;;;;;;;1.15;0.68;;;12.40;71.70;;;;;;6232798;23;20229;-85
2022/02/17 03:07:20;;;;;;;0.50;0.50;;;12.40;71.60;;;;;;6231565;23;20204;-85
2022/02/17 03:10:02;;;;;;;0.50;0.50;;;12.40;71.00;;;;;;6231703;23;20634;-83
2022/02/17 03:12:38;;;;;;;0.70;0.70;;;12.40;69.80;;;;;;6214392;23;20198;-84
2022/02/17 03:15:09;;;;;;;0.30;0.30;;;12.40;70.00;;;;;;6232745;23;20642;-84
2022/02/17 03:17:36;;;;;;;2.05;0.50;;;12.40;70.30;;;;;;6209561;23;20206;-83
2022/02/17 03:20:07;;;;;;;0.75;0.45;;;12.50;68.60;;;;;;6232439;23;20182;-84
2022/02/17 03:22:40;;;;;;;0.55;0.50;;;12.50;68.40;;;;;;6232736;23;20212;-85
2022/02/17 03:25:09;;;;;;;0.50;0.50;;;12.60;67.60;;;;;;6231856;23;20221;-83
2022/02/17 03:27:42;;;;;;;0.50;0.50;;;12.40;67.90;;;;;;6223545;23;20205;-84
2022/02/17 03:30:13;;;;;;;0.50;0.50;;;12.40;67.60;;;;;;6232984;23;20192;-85
2022/02/17 03:32:50;;;;;;;0.70;0.70;;;12.40;68.10;;;;;;6230694;23;20213;-84
2022/02/17 03:35:18;;;;;;;0.80;0.57;;;12.40;68.60;;;;;;6232305;23;20173;-85
2022/02/17 03:37:55;;;;;;;0.55;0.55;;;12.40;67.50;;;;;;6232497;23;20174;-84
2022/02/17 03:40:23;;;;;;;0.63;0.63;;;12.40;67.60;;;;;;6230661;23;20617;-83
2022/02/17 03:42:52;;;;;;;0.50;0.50;;;12.40;66.90;;;;;;6231206;23;20181;-84
2022/02/17 03:45:19;;;;;;;0.52;0.47;;;12.30;67.40;;;;;;6230532;23;20189;-83
2022/02/17 03:47:52;;;;;;;0.82;0.68;;;12.30;67.30;;;;;;6231119;23;20202;-83
2022/02/17 03:50:19;;;;;;;0.45;0.45;;;12.20;66.80;;;;;;6230033;23;20220;-84
2022/02/17 03:52:45;;;;;;;2.83;0.60;;;12.40;65.70;;;;;;6230029;23;20174;-83
2022/02/17 03:55:29;;;;;;;1.55;0.50;;;12.30;66.10;;;;;;6230830;23;20237;-83
2022/02/17 03:58:00;;;;;;;0.52;0.40;;;12.30;66.80;;;;;;6231401;23;20301;-83
2022/02/17 04:00:27;;;;;;;0.60;0.60;;;12.10;67.30;;;;;;6231757;23;20192;-83
2022/02/17 04:02:54;;;;;;;0.52;0.50;;;12.10;66.50;;;;;;6230750;23;20178;-86
2022/02/17 04:05:21;;;;;;;0.65;0.65;;;12.10;66.70;;;;;;6229551;23;20177;-83
2022/02/17 04:07:48;;;;;;;0.65;0.65;;;12.20;67.20;;;;;;6231714;23;20181;-83
2022/02/17 04:10:27;;;;;;;3.50;0.60;;;12.20;66.90;;;;;;6230975;23;20205;-83
2022/02/17 04:12:54;;;;;;;0.40;0.40;;;12.20;66.60;;;;;;6231743;23;20499;-83
2022/02/17 04:15:24;;;;;;;0.55;0.55;;;12.20;66.10;;;;;;6229686;23;20232;-83
2022/02/17 04:17:52;;;;;;;0.40;0.40;;;12.30;66.30;;;;;;6230339;23;20193;-83
2022/02/17 04:20:22;;;;;;;0.40;0.40;;;12.20;65.90;;;;;;6228075;23;20185;-84
2022/02/17 04:22:50;;;;;;;0.40;0.40;;;12.10;67.30;;;;;;6229377;23;20171;-84
2022/02/17 04:25:17;;;;;;;0.30;0.30;;;12.20;67.00;;;;;;6229381;23;20162;-84
2022/02/17 04:27:44;;;;;;;0.40;0.40;;;12.20;67.60;;;;;;6227811;23;20201;-85
2022/02/17 04:30:15;;;;;;;0.40;0.40;;;12.10;67.30;;;;;;6229433;23;20178;-84
2022/02/17 04:32:43;;;;;;;0.40;0.40;;;12.10;68.00;;;;;;6227180;23;20308;-83
2022/02/17 04:35:17;;;;;;;1.75;0.30;;;12.10;67.80;;;;;;6227381;23;20253;-84
2022/02/17 04:37:45;;;;;;;1.08;0.40;;;12.10;68.10;;;;;;6228570;23;20173;-84
2022/02/17 04:40:18;;;;;;;0.30;0.30;;;12.10;68.60;;;;;;6229468;23;20657;-83
2022/02/17 04:42:46;;;;;;;3.10;0.40;;;12.00;69.70;;;;;;6229611;23;20181;-83
2022/02/17 04:45:20;;;;;;;0.30;0.30;;;12.00;70.00;;;;;;6230101;23;20243;-84
2022/02/17 04:47:54;;;;;;;0.30;0.30;;;12.00;70.00;;;;;;6227902;22;20272;-83
2022/02/17 05:05:54;;;;;;;1.08;0.35;;;11.90;73.00;;;;;;6250614;22;20200;-84
2022/02/17 05:08:21;;;;;;;0.50;0.50;;;11.90;73.30;;;;;;6252016;23;20196;-84
2022/02/17 05:10:49;;;;;;;0.93;0.85;;;11.90;74.00;;;;;;6252424;22;20608;-84
2022/02/17 05:13:16;;;;;;;0.47;0.40;;;12.00;75.20;;;;;;6252020;23;20657;-84
2022/02/17 05:15:44;;;;;;;0.40;0.40;;;12.00;75.10;;;;;;6251672;23;20209;-84
2022/02/17 05:18:11;;;;;;;0.50;0.50;;;11.90;75.10;;;;;;6252970;23;20252;-84
2022/02/17 05:20:38;;;;;;;0.60;0.60;;;11.90;75.10;;;;;;6252152;23;20216;-84
2022/02/17 05:23:07;;;;;;;0.52;0.43;;;11.90;75.10;;;;;;6253782;23;20173;-83
2022/02/17 05:25:34;;;;;;;0.75;0.75;;;11.90;75.10;;;;;;6250958;23;20174;-84
2022/02/17 05:28:01;;;;;;;2.10;0.45;;;11.90;75.10;;;;;;6254023;23;20677;-85
2022/02/17 05:30:28;;;;;;;0.75;0.73;;;11.80;75.00;;;;;;6251876;23;20828;-84
2022/02/17 05:32:55;;;;;;;0.50;0.50;;;11.70;76.60;;;;;;6251744;23;20200;-84
2022/02/17 05:35:22;;;;;;;0.60;0.60;;;11.70;77.20;;;;;;6251835;23;20200;-84
2022/02/17 05:37:49;;;;;;;0.50;0.50;;;11.70;77.70;;;;;;6251540;23;20285;-84
2022/02/17 05:40:18;;;;;;;0.60;0.60;;;11.60;78.10;;;;;;6251629;23;20518;-84
2022/02/17 05:42:45;;;;;;;0.60;0.60;;;11.60;78.20;;;;;;6223641;23;20286;-84
2022/02/17 05:45:12;;;;;;;0.52;0.52;;;11.60;78.50;;;;;;6251465;23;20260;-86
2022/02/17 05:47:41;;;;;;;0.90;0.52;;;11.70;79.20;;;;;;6251774;23;20672;-83
2022/02/17 05:50:09;;;;;;;0.60;0.60;;;11.70;78.50;;;;;;6224553;23;20203;-84
2022/02/17 05:52:36;;;;;;;0.50;0.50;;;11.70;78.50;;;;;;6223197;23;20220;-87
2022/02/17 05:55:04;;;;;;;0.70;0.70;;;11.60;78.80;;;;;;6227295;23;20162;-86
2022/02/17 05:57:32;;;;;;;2.20;0.68;;;11.60;79.60;;;;;;6230915;23;20686;-86
2022/02/17 05:59:59;;;;;;;2.15;0.65;;;11.70;79.10;;;;;;6231274;23;20170;-85
2022/02/17 06:02:26;;;;;;;1.27;0.57;;;11.80;78.70;;;;;;6223894;23;20202;-84
2022/02/17 06:05:01;;;;;;;0.60;0.60;;;11.70;79.60;;;;;;6224059;23;20201;-84
2022/02/17 06:07:28;;;;;;;0.80;0.80;;;11.70;79.70;;;;;;6221708;23;20751;-84
2022/02/17 06:10:02;;;;;;;0.50;0.50;;;11.60;79.90;;;;;;6224021;23;20720;-86
2022/02/17 06:12:29;;;;;;;0.70;0.60;;;11.70;79.70;;;;;;6222172;23;20252;-87
2022/02/17 06:14:58;;;;;;;0.50;0.50;;;11.60;79.70;;;;;;6223680;23;20201;-84
2022/02/17 06:17:25;;;;;;;0.85;0.70;;;11.70;79.80;;;;;;6223972;23;20205;-88
2022/02/17 06:19:52;;;;;;;0.60;0.60;;;11.60;80.00;;;;;;6229501;23;20185;-87
2022/02/17 06:22:19;;;;;;;1.55;0.75;;;11.60;80.30;;;;;;6225729;23;20226;-85
2022/02/17 06:24:47;;;;;;;0.82;0.82;;;11.60;80.20;;;;;;6225491;23;20331;-88
2022/02/17 06:27:16;;;;;;;0.73;0.73;;;11.60;80.90;;;;;;6200362;23;20225;-85
2022/02/17 06:29:43;;;;;;;0.80;0.80;;;11.60;80.80;;;;;;6225805;23;20252;-86
2022/02/17 06:32:12;;;;;;;0.85;0.65;;;11.60;80.70;;;;;;6199661;23;20225;-85
2022/02/17 06:34:39;;;;;;;0.65;0.65;;;11.60;80.40;;;;;;6227463;23;20238;-85
2022/02/17 06:37:06;;;;;;;1.33;0.68;;;11.60;80.40;;;;;;6223091;23;20561;-84
2022/02/17 06:39:45;;;;;;;2.60;0.60;;;11.60;81.50;;;;;;6222482;23;20180;-84
2022/02/17 06:42:11;;;;;;;0.30;0.30;;;11.60;80.90;;;;;;6223612;23;20209;-85
2022/02/17 06:48:06;;;;;;;0.40;0.40;;;11.50;81.60;;;;;;6224839;23;20141;-85
2022/02/17 06:50:34;;;;;;;0.35;0.30;;;11.60;80.70;;;;;;6224821;23;20565;-85
2022/02/17 06:53:01;;;;;;;0.40;0.40;;;11.60;81.40;;;;;;6224401;23;20190;-84
2022/02/17 06:55:29;;;;;;;1.45;0.73;;;11.60;80.50;;;;;;6226507;22;20250;-85
2022/02/17 06:57:56;;;;;;;0.55;0.55;;;11.60;80.30;;;;;;6225122;23;20176;-85
2022/02/17 07:00:23;;;;;;;0.52;0.52;;;11.70;80.20;;;;;;6223971;23;20254;-84
2022/02/17 07:02:51;;;;;;;0.50;0.50;;;11.70;79.50;;;;;;6224649;23;20229;-85
2022/02/17 07:05:20;;;;;;;0.40;0.40;;;11.60;79.90;;;;;;6224691;23;20163;-85
2022/02/17 07:07:47;;;;;;;0.40;0.40;;;11.60;80.20;;;;;;6225318;23;20253;-85
2022/02/17 07:13:04;;;;;;;0.40;0.40;;;11.70;79.70;;;;;;6224056;23;20224;-85
2022/02/17 07:15:34;;;;;;;0.70;0.70;;;11.70;80.00;;;;;;6224196;23;20225;-85
2022/02/17 07:18:02;;;;;;;0.50;0.50;;;11.80;80.60;;;;;;6224187;23;20169;-86
2022/02/17 07:20:30;;;;;;;2.00;0.73;;;11.90;79.50;;;;;;6225742;22;20197;-85
2022/02/17 07:23:02;;;;;;;1.55;0.40;;;12.10;79.20;;;;;;6224194;23;20166;-84
2022/02/17 07:25:28;;;;;;;1.13;0.40;;;12.10;79.00;;;;;;6222385;23;20170;-84
2022/02/17 07:27:55;;;;;;;0.40;0.40;;;12.10;78.80;;;;;;6223992;23;20237;-84
2022/02/17 07:44:31;;;;;;;0.85;0.43;;;12.30;78.20;;;;;;6230902;23;20157;-84
2022/02/17 07:46:58;;;;;;;0.38;0.32;;;12.40;77.90;;;;;;6237102;22;20174;-84
2022/02/17 09:40:47;;;;;;;2.10;0.75;;;10.60;99.90;;;;;;6209166;22;20207;-85
2022/02/17 09:43:16;;;;;;;1.20;0.70;;;10.40;99.90;;;;;;6254008;23;20193;-85
2022/02/17 09:45:46;;;;;;;0.80;0.80;;;10.40;99.90;;;;;;6254068;23;20224;-85
2022/02/17 09:48:28;;;;;;;0.95;0.63;;;10.40;99.90;;;;;;6249629;23;20212;-85
2022/02/17 09:50:55;;;;;;;0.70;0.70;;;10.40;99.90;;;;;;6224058;23;20269;-85
2022/02/17 09:53:22;;;;;;;3.10;0.82;;;10.40;99.90;;;;;;6224197;23;20245;-84
2022/02/17 09:55:57;;;;;;;1.60;0.60;;;10.40;99.90;;;;;;6224163;23;20198;-85
2022/02/17 09:58:24;;;;;;;0.55;0.52;;;10.30;99.90;;;;;;6224486;23;20272;-85
2022/02/17 10:00:53;;;;;;;3.50;1.05;;;10.30;99.90;;;;;;6230608;22;20173;-85
2022/02/17 10:03:22;;;;;;;1.02;0.82;;;10.20;99.90;;;;;;6223605;23;20178;-85
2022/02/17 10:06:08;;;;;;;2.03;0.90;;;10.20;99.90;;;;;;6197712;23;20197;-84
2022/02/17 10:08:47;;;;;;;1.90;0.90;;;10.20;99.90;;;;;;6223240;23;20208;-85
2022/02/17 10:14:34;;;;;;;2.92;0.88;;;10.20;99.90;;;;;;6197313;23;20310;-85
2022/02/17 10:17:04;;;;;;;1.63;0.93;;;10.10;99.90;;;;;;6223741;23;20276;-85
2022/02/17 10:19:35;;;;;;;2.30;0.90;;;10.20;99.90;;;;;;6223498;23;20166;-85
2022/02/17 10:22:35;;;;;;;1.42;0.80;;;10.30;99.90;;;;;;6223590;23;20225;-85
2022/02/17 10:25:20;;;;;;;2.13;0.80;;;10.30;99.90;;;;;;6212212;23;20177;-85
2022/02/17 10:27:57;;;;;;;1.58;0.70;;;10.30;99.90;;;;;;6221855;23;20260;-86
2022/02/17 10:30:27;;;;;;;0.85;0.85;;;10.30;99.90;;;;;;6222603;23;20161;-85
2022/02/17 10:32:56;;;;;;;1.27;0.60;;;10.30;99.90;;;;;;6223888;23;20212;-85
2022/02/17 10:35:31;;;;;;;1.27;0.50;;;10.20;99.90;;;;;;6223618;23;20265;-86
2022/02/17 10:38:00;;;;;;;2.35;0.98;;;10.30;99.90;;;;;;6224286;23;20189;-85
2022/02/17 10:40:28;;;;;;;3.10;1.35;;;10.20;99.90;;;;;;6223070;23;20253;-86
2022/02/17 10:43:04;;;;;;;5.97;1.33;;;10.00;99.90;;;;;;6224603;23;20243;-85
2022/02/17 10:45:32;;;;;;;4.57;1.70;;;9.70;99.90;;;;;;6222633;23;20166;-86
2022/02/17 10:48:12;;;;;;;2.92;1.52;;;9.50;99.90;;;;;;6223801;23;20173;-85
2022/02/17 10:50:39;;;;;;;4.03;1.73;;;9.50;99.90;;;;;;6223519;23;20224;-86
2022/02/17 10:53:19;;;;;;;3.85;1.45;;;9.40;99.90;;;;;;6223478;23;20626;-85
2022/02/17 10:55:56;;;;;;;4.93;1.50;;;9.40;99.90;;;;;;6223260;23;20193;-85
2022/02/17 10:58:27;;;;;;;3.75;1.40;;;9.30;99.90;;;;;;6223344;23;20218;-85
2022/02/17 11:00:56;;;;;;;4.68;1.50;;;9.30;99.90;;;;;;6224502;23;20574;-85
2022/02/17 11:03:23;;;;;;;6.07;1.83;;;9.30;99.90;;;;;;6224386;23;20170;-87
2022/02/17 11:05:51;;;;;;;4.55;1.20;;;9.30;99.90;;;;;;6223292;23;20256;-85
2022/02/17 11:08:18;;;;;;;3.25;1.38;;;9.20;99.90;;;;;;6199203;23;20554;-83
2022/02/17 11:10:46;;;;;;;2.60;1.50;;;9.10;99.90;;;;;;6226225;23;20281;-85
2022/02/17 11:13:20;;;;;;;4.53;1.45;;;9.20;99.90;;;;;;6229164;23;20257;-85
2022/02/17 11:15:51;;;;;;;2.53;1.30;;;9.30;99.90;;;;;;6230764;23;20222;-85
2022/02/17 11:18:21;;;;;;;4.05;1.50;;;9.40;99.90;;;;;;6230473;23;20273;-85
2022/02/17 11:21:04;;;;;;;5.18;1.40;;;9.50;99.90;;;;;;6231157;23;20217;-86
2022/02/17 11:23:33;;;;;;;5.95;1.42;;;9.70;99.90;;;;;;6232191;23;20194;-85
2022/02/17 11:26:02;;;;;;;3.03;1.05;;;10.00;99.90;;;;;;6205019;23;20208;-85
2022/02/17 11:28:38;;;;;;;3.75;1.30;;;10.10;99.90;;;;;;6231830;23;20166;-85
2022/02/17 11:31:11;;;;;;;4.65;1.30;;;10.20;99.90;;;;;;6231173;22;20205;-85
2022/02/17 11:36:30;;;;;;;4.05;1.48;;;10.20;99.20;;;;;;6216661;23;20197;-86
2022/02/17 11:39:06;;;;;;;4.80;1.20;;;10.30;99.80;;;;;;6231503;23;20590;-84
2022/02/17 11:41:47;;;;;;;3.10;1.80;;;10.30;99.40;;;;;;6238399;22;20236;-85
2022/02/17 13:45:24;;;;;;;5.95;1.88;;;11.80;49.60;;;;;;6212354;23;20177;-85
2022/02/17 14:11:04;;;;;;;5.72;2.15;;;12.30;47.40;;;;;;6208301;23;20203;-85
2022/02/17 14:13:32;;;;;;;6.80;2.33;;;12.40;49.00;;;;;;6228494;23;20861;-87
2022/02/17 14:15:58;;;;;;;6.60;2.05;;;12.40;47.80;;;;;;6224591;23;20204;-85
2022/02/17 14:18:26;;;;;;;8.57;2.38;;;12.40;46.60;;;;;;6225761;23;20234;-87
2022/02/17 14:20:53;;;;;;;7.97;2.20;;;12.30;48.90;;;;;;6225456;23;20281;-84
2022/02/17 14:23:20;;;;;;;8.45;2.40;;;12.20;48.40;;;;;;6222252;23;20212;-85
2022/02/17 14:25:47;;;;;;;8.60;2.85;;;12.10;48.70;;;;;;6222391;22;20200;-84
2022/02/17 14:28:15;;;;;;;9.35;2.40;;;12.10;48.70;;;;;;6220785;23;20249;-84
2022/02/17 14:30:46;;;;;;;7.28;2.50;;;12.00;48.60;;;;;;6219976;23;20193;-84
2022/02/17 14:33:12;;;;;;;9.43;2.38;;;11.90;48.50;;;;;;6250690;23;20527;-86
2022/02/17 14:35:40;;;;;;;6.93;2.55;;;11.90;50.60;;;;;;6249677;23;20534;-83
2022/02/17 14:38:24;;;;;;;11.32;2.33;;;12.00;50.10;;;;;;6250934;23;20183;-84
2022/02/17 14:40:51;;;;;;;6.97;1.85;;;12.00;48.60;;;;;;6250060;23;20227;-89
2022/02/17 14:43:28;;;;;;;6.65;1.98;;;11.90;48.50;;;;;;6249302;23;20174;-85
2022/02/17 14:45:58;;;;;;;5.10;1.92;;;11.90;48.50;;;;;;6249349;23;20196;-84
2022/02/17 14:48:25;;;;;;;3.75;1.67;;;11.90;48.50;;;;;;6246600;23;20198;-84
2022/02/17 14:50:53;;;;;;;5.43;1.85;;;11.90;48.50;;;;;;6225179;23;20268;-84
2022/02/17 14:53:21;;;;;;;4.78;1.92;;;12.00;48.60;;;;;;6224438;23;20201;-85
2022/02/17 14:55:50;;;;;;;4.50;1.95;;;12.10;47.60;;;;;;6222681;23;20623;-85
2022/02/17 14:58:21;;;;;;;4.72;1.70;;;12.10;47.30;;;;;;6222885;23;20174;-85
2022/02/17 15:00:50;;;;;;;10.70;2.20;;;12.10;48.70;;;;;;6222990;23;20201;-85
2022/02/17 15:03:18;;;;;;;10.00;2.03;;;12.00;48.60;;;;;;6222938;23;20173;-84
2022/02/17 15:05:45;;;;;;;7.25;2.25;;;12.10;44.50;;;;;;6222387;23;20236;-84
2022/02/17 15:08:18;;;;;;;6.75;1.73;;;12.00;40.70;;;;;;6221915;23;20209;-84
2022/02/17 15:10:45;;;;;;;9.02;2.53;;;12.00;40.00;;;;;;6222602;23;20225;-85
2022/02/17 15:13:12;;;;;;;6.47;2.10;;;11.90;38.90;;;;;;6220615;23;20236;-84
2022/02/17 15:15:39;;;;;;;5.18;2.03;;;11.80;38.70;;;;;;6218587;23;20212;-85
2022/02/17 15:18:07;;;;;;;7.40;1.85;;;11.70;37.20;;;;;;6221211;23;20476;-84
2022/02/17 15:20:34;;;;;;;4.90;2.00;;;11.80;38.30;;;;;;6220439;23;20202;-86
2022/02/17 15:23:03;;;;;;;6.82;2.15;;;11.70;38.10;;;;;;6219879;23;20261;-85
2022/02/17 15:25:31;;;;;;;8.23;2.30;;;11.60;38.10;;;;;;6220545;23;20492;-85
2022/02/17 15:27:58;;;;;;;5.45;1.88;;;11.50;38.10;;;;;;6220304;23;20261;-86
2022/02/17 15:30:27;;;;;;;6.53;2.10;;;11.50;38.70;;;;;;6221423;23;20235;-85
2022/02/17 15:32:55;;;;;;;5.55;2.17;;;11.50;40.00;;;;;;6223535;23;20289;-88
2022/02/17 15:35:24;;;;;;;4.97;1.92;;;11.50;39.80;;;;;;6221647;23;20194;-85
2022/02/17 15:37:56;;;;;;;5.47;2.03;;;11.50;39.50;;;;;;6197371;23;20178;-85
2022/02/17 15:40:25;;;;;;;8.30;2.13;;;11.50;40.00;;;;;;6224157;23;20524;-85
2022/02/17 15:43:25;;;;;;;6.70;2.10;;;11.40;39.60;;;;;;6223977;23;20531;-84
2022/02/17 15:45:52;;;;;;;8.02;2.22;;;11.40;39.30;;;;;;6224195;23;20205;-85
2022/02/17 15:48:19;;;;;;;7.32;2.10;;;11.40;40.30;;;;;;6224278;23;20194;-84
2022/02/17 15:50:48;;;;;;;6.25;1.95;;;11.40;40.10;;;;;;6223805;23;20288;-85
2022/02/17 15:53:41;;;;;;;5.95;2.15;;;11.30;40.50;;;;;;6225233;23;20290;-89
2022/02/17 15:56:25;;;;;;;6.85;2.10;;;11.20;40.00;;;;;;6223614;23;20222;-84
2022/02/17 15:58:52;;;;;;;5.97;1.90;;;11.20;41.40;;;;;;6225270;23;20609;-85
2022/02/17 16:01:19;;;;;;;8.73;2.50;;;11.10;42.30;;;;;;6222582;23;20225;-85
2022/02/17 16:03:46;;;;;;;6.50;2.33;;;11.00;42.90;;;;;;6197340;23;20249;-86
2022/02/17 16:06:14;;;;;;;6.18;2.17;;;10.90;43.60;;;;;;6224613;23;20223;-85
2022/02/17 16:08:41;;;;;;;8.52;2.03;;;10.90;45.30;;;;;;6197291;23;20181;-85
2022/02/17 16:11:10;;;;;;;8.05;2.42;;;10.90;45.30;;;;;;6222794;23;20226;-85
2022/02/17 16:13:36;;;;;;;6.28;2.17;;;11.00;45.20;;;;;;6222340;23;20182;-84
2022/02/17 16:16:04;;;;;;;9.18;2.13;;;11.00;44.30;;;;;;6221783;23;20222;-84
2022/02/17 16:18:31;;;;;;;9.50;2.38;;;11.00;45.10;;;;;;6222712;23;20618;-85
2022/02/17 16:20:57;;;;;;;8.77;2.10;;;11.00;47.70;;;;;;6223167;23;20201;-86
2022/02/17 16:23:33;;;;;;;4.78;2.00;;;11.00;47.60;;;;;;6223419;23;20178;-85
2022/02/17 16:26:00;;;;;;;5.90;1.98;;;10.90;47.60;;;;;;6221309;23;20233;-84
2022/02/17 16:28:27;;;;;;;6.43;2.15;;;11.00;47.70;;;;;;6224349;23;20184;-83
2022/02/17 16:30:54;;;;;;;4.97;2.00;;;11.00;47.70;;;;;;6223230;23;20220;-84
2022/02/17 16:33:22;;;;;;;6.47;2.17;;;11.00;46.90;;;;;;6224032;23;20229;-84
2022/02/17 16:35:49;;;;;;;7.05;2.35;;;10.90;47.60;;;;;;6223234;23;20201;-84
2022/02/17 16:38:20;;;;;;;7.88;2.28;;;11.00;45.70;;;;;;6223830;23;20197;-85
2022/02/17 16:40:49;;;;;;;5.00;2.10;;;11.00;46.80;;;;;;6220832;23;20206;-84
2022/02/17 16:43:16;;;;;;;7.28;2.10;;;11.00;46.90;;;;;;6221535;23;20181;-85
2022/02/17 16:45:44;;;;;;;6.75;2.10;;;10.90;47.60;;;;;;6220541;23;20755;-84
2022/02/17 16:48:12;;;;;;;7.70;2.67;;;10.90;46.10;;;;;;6221907;23;20202;-82
2022/02/17 16:50:39;;;;;;;5.95;2.00;;;10.90;46.60;;;;;;6223021;23;20227;-86
2022/02/17 16:53:07;;;;;;;7.65;2.15;;;10.90;47.60;;;;;;6222718;23;20198;-84
2022/02/17 16:55:35;;;;;;;5.88;2.20;;;10.80;46.70;;;;;;6228199;23;20238;-85
2022/02/17 16:58:06;;;;;;;5.78;2.08;;;10.80;47.60;;;;;;6229763;23;20185;-83
2022/02/17 17:00:36;;;;;;;7.32;2.20;;;10.70;47.50;;;;;;6228749;23;20193;-84
2022/02/17 17:03:09;;;;;;;8.18;2.28;;;10.70;47.40;;;;;;6228655;23;20173;-83
2022/02/17 17:05:37;;;;;;;7.47;2.40;;;10.70;47.50;;;;;;6228681;23;20169;-85
2022/02/17 17:08:07;;;;;;;9.00;2.20;;;10.70;47.50;;;;;;6228971;23;20193;-83
2022/02/17 17:10:35;;;;;;;6.80;2.70;;;10.60;47.40;;;;;;6229925;23;20166;-85
2022/02/17 17:13:03;;;;;;;6.00;2.28;;;10.60;46.10;;;;;;6230218;23;20213;-87
2022/02/17 17:25:22;;;;;;;8.35;2.47;;;10.30;47.10;;;;;;6168950;23;20174;-86
2022/02/17 17:27:52;;;;;;;7.20;2.20;;;10.20;46.90;;;;;;6226841;23;20224;-85
2022/02/17 17:30:31;;;;;;;9.43;2.60;;;10.10;46.90;;;;;;6231103;23;20203;-84
2022/02/17 17:33:08;;;;;;;9.32;2.72;;;10.10;46.90;;;;;;6231155;23;20246;-85
2022/02/17 17:35:35;;;;;;;9.23;2.72;;;10.10;46.90;;;;;;6229182;23;20162;-85
2022/02/17 17:38:15;;;;;;;11.23;2.92;;;10.20;47.00;;;;;;6229660;23;20201;-84
2022/02/17 17:40:42;;;;;;;9.65;2.95;;;10.20;47.00;;;;;;6226327;23;20534;-84
2022/02/17 17:43:09;;;;;;;9.07;2.60;;;10.30;45.50;;;;;;6229458;23;20681;-85
2022/02/17 17:45:38;;;;;;;13.65;3.13;;;10.20;46.70;;;;;;6227741;23;20174;-85
2022/02/17 17:50:43;;;;;;;11.05;3.13;;;10.10;46.90;;;;;;6259664;22;20176;-85
2022/02/17 17:53:36;;;;;;;9.60;2.45;;;10.00;46.80;;;;;;6233757;23;20216;-84
2022/02/17 17:56:04;;;;;;;13.27;2.97;;;9.90;48.30;;;;;;6259080;23;20485;-84
2022/02/17 17:58:31;;;;;;;11.55;3.10;;;9.80;50.00;;;;;;6233506;23;20195;-85
2022/02/17 18:00:59;;;;;;;12.45;3.28;;;9.70;50.40;;;;;;6257599;22;20257;-85
2022/02/17 18:03:26;;;;;;;10.07;2.78;;;9.60;51.20;;;;;;6257782;23;20914;-84
2022/02/17 18:05:54;;;;;;;12.35;3.22;;;9.60;52.30;;;;;;6258572;23;20220;-84
2022/02/17 18:08:42;;;;;;;9.70;2.55;;;9.50;52.30;;;;;;6259655;23;20305;-85
2022/02/17 18:11:11;;;;;;;10.57;3.08;;;9.60;51.30;;;;;;6258265;23;20256;-86